sensor_id;sensor_type;location;lat;lon;timestamp;pressure;altitude;pressure_sealevel;temperature;humidity
66681;BME280;53575;51.366;12.350;2023-03-19T00:00:13;100032.22;;;9.87;80.87
66681;BME280;53575;51.366;12.350;2023-03-19T00:02:38;100029.59;;;9.90;80.96
66681;BME280;53575;51.366;12.350;2023-03-19T00:05:05;100027.91;;;9.80;81.08
66681;BME280;53575;51.366;12.350;2023-03-19T00:07:30;100026.22;;;9.77;81.36
66681;BME280;53575;51.366;12.350;2023-03-19T00:09:56;100024.47;;;9.76;81.64
66681;BME280;53575;51.366;12.350;2023-03-19T00:12:21;100021.84;;;9.79;80.93
66681;BME280;53575;51.366;12.350;2023-03-19T00:14:47;100024.47;;;9.77;81.10
66681;BME280;53575;51.366;12.350;2023-03-19T00:17:13;100022.78;;;9.73;81.59
66681;BME280;53575;51.366;12.350;2023-03-19T00:19:38;100028.75;;;9.83;80.92
66681;BME280;53575;51.366;12.350;2023-03-19T00:22:04;100034.91;;;9.81;81.25
66681;BME280;53575;51.366;12.350;2023-03-19T00:24:30;100034.91;;;9.81;80.91
66681;BME280;53575;51.366;12.350;2023-03-19T00:26:55;100033.22;;;9.70;81.43
66681;BME280;53575;51.366;12.350;2023-03-19T00:29:21;100036.63;;;9.79;80.78
66681;BME280;53575;51.366;12.350;2023-03-19T00:31:47;100039.22;;;9.83;80.34
66681;BME280;53575;51.366;12.350;2023-03-19T00:34:13;100039.16;;;9.92;79.78
66681;BME280;53575;51.366;12.350;2023-03-19T00:36:38;100040.03;;;9.90;79.76
66681;BME280;53575;51.366;12.350;2023-03-19T00:39:04;100032.16;;;9.94;79.54
66681;BME280;53575;51.366;12.350;2023-03-19T00:41:30;100041.66;;;10.05;78.86
66681;BME280;53575;51.366;12.350;2023-03-19T00:43:56;100023.38;;;10.03;78.90
66681;BME280;53575;51.366;12.350;2023-03-19T00:46:23;100025.06;;;10.07;78.83
66681;BME280;53575;51.366;12.350;2023-03-19T00:48:49;100027.69;;;10.07;78.58
66681;BME280;53575;51.366;12.350;2023-03-19T00:51:18;100022.56;;;9.98;79.09
66681;BME280;53575;51.366;12.350;2023-03-19T00:53:43;100027.66;;;10.10;78.28
66681;BME280;53575;51.366;12.350;2023-03-19T00:56:11;100025.94;;;10.09;78.59
66681;BME280;53575;51.366;12.350;2023-03-19T00:58:37;100024.22;;;10.07;78.32
66681;BME280;53575;51.366;12.350;2023-03-19T01:01:05;100020.69;;;10.14;78.26
66681;BME280;53575;51.366;12.350;2023-03-19T01:03:31;100016.31;;;10.14;77.97
66681;BME280;53575;51.366;12.350;2023-03-19T01:05:57;100013.72;;;10.16;77.50
66681;BME280;53575;51.366;12.350;2023-03-19T01:08:23;100010.13;;;10.24;77.01
66681;BME280;53575;51.366;12.350;2023-03-19T01:10:49;100015.47;;;10.15;77.96
66681;BME280;53575;51.366;12.350;2023-03-19T01:13:14;100011.16;;;10.07;78.09
66681;BME280;53575;51.366;12.350;2023-03-19T01:15:41;100019.94;;;10.01;77.97
66681;BME280;53575;51.366;12.350;2023-03-19T01:18:08;100020.81;;;9.98;78.09
66681;BME280;53575;51.366;12.350;2023-03-19T01:20:34;100022.53;;;9.99;77.55
66681;BME280;53575;51.366;12.350;2023-03-19T01:23:01;100026.00;;;10.03;77.43
66681;BME280;53575;51.366;12.350;2023-03-19T01:25:26;100024.94;;;10.25;75.56
66681;BME280;53575;51.366;12.350;2023-03-19T01:27:52;100024.19;;;10.11;76.37
66681;BME280;53575;51.366;12.350;2023-03-19T01:30:18;100019.78;;;10.16;75.24
66681;BME280;53575;51.366;12.350;2023-03-19T01:32:45;100019.69;;;10.32;74.48
66681;BME280;53575;51.366;12.350;2023-03-19T01:35:10;100020.56;;;10.31;74.54
66681;BME280;53575;51.366;12.350;2023-03-19T01:37:36;100024.09;;;10.20;74.88
66681;BME280;53575;51.366;12.350;2023-03-19T01:40:03;100025.78;;;10.31;74.23
66681;BME280;53575;51.366;12.350;2023-03-19T01:42:30;100028.50;;;10.15;74.91
66681;BME280;53575;51.366;12.350;2023-03-19T01:44:56;100025.00;;;10.16;74.68
66681;BME280;53575;51.366;12.350;2023-03-19T01:47:27;100030.13;;;10.30;73.93
66681;BME280;53575;51.366;12.350;2023-03-19T01:49:55;100031.06;;;10.21;74.40
66681;BME280;53575;51.366;12.350;2023-03-19T01:52:23;100027.56;;;10.25;74.16
66681;BME280;53575;51.366;12.350;2023-03-19T01:54:50;100026.72;;;10.20;74.53
66681;BME280;53575;51.366;12.350;2023-03-19T01:57:16;100021.47;;;10.23;74.37
66681;BME280;53575;51.366;12.350;2023-03-19T01:59:47;100017.19;;;10.16;75.47
66681;BME280;53575;51.366;12.350;2023-03-19T02:02:26;100022.41;;;10.15;74.88
66681;BME280;53575;51.366;12.350;2023-03-19T02:04:59;100021.47;;;10.28;74.42
66681;BME280;53575;51.366;12.350;2023-03-19T02:07:28;100020.50;;;10.38;73.91
66681;BME280;53575;51.366;12.350;2023-03-19T02:09:57;100010.97;;;10.31;73.89
66681;BME280;53575;51.366;12.350;2023-03-19T02:12:23;100012.72;;;10.32;73.87
66681;BME280;53575;51.366;12.350;2023-03-19T02:14:49;100014.50;;;10.25;74.62
66681;BME280;53575;51.366;12.350;2023-03-19T02:17:15;100004.94;;;10.21;74.84
66681;BME280;53575;51.366;12.350;2023-03-19T02:19:46;100008.44;;;10.27;74.57
66681;BME280;53575;51.366;12.350;2023-03-19T02:22:16;100007.56;;;10.23;75.23
66681;BME280;53575;51.366;12.350;2023-03-19T02:24:57;100003.19;;;10.22;74.96
66681;BME280;53575;51.366;12.350;2023-03-19T02:27:23;100011.09;;;10.16;76.85
66681;BME280;53575;51.366;12.350;2023-03-19T02:29:49;100005.03;;;10.11;75.94
66681;BME280;53575;51.366;12.350;2023-03-19T02:32:14;100011.22;;;10.02;76.58
66681;BME280;53575;51.366;12.350;2023-03-19T02:34:42;100015.63;;;9.97;76.93
66681;BME280;53575;51.366;12.350;2023-03-19T02:39:57;100027.94;;;9.81;77.29
66681;BME280;53575;51.366;12.350;2023-03-19T02:42:27;100020.03;;;9.89;76.59
66681;BME280;53575;51.366;12.350;2023-03-19T02:44:54;100031.34;;;9.89;76.60
66681;BME280;53575;51.366;12.350;2023-03-19T02:47:20;100029.50;;;10.00;75.89
66681;BME280;53575;51.366;12.350;2023-03-19T02:49:46;100027.03;;;9.85;76.88
66681;BME280;53575;51.366;12.350;2023-03-19T02:52:11;100039.22;;;9.82;77.10
66681;BME280;53575;51.366;12.350;2023-03-19T02:54:37;100039.31;;;9.69;77.62
66681;BME280;53575;51.366;12.350;2023-03-19T02:57:03;100026.28;;;9.69;77.61
66681;BME280;53575;51.366;12.350;2023-03-19T02:59:29;100027.97;;;9.72;78.83
66681;BME280;53575;51.366;12.350;2023-03-19T03:01:55;100024.53;;;9.65;79.07
66681;BME280;53575;51.366;12.350;2023-03-19T03:04:21;100021.19;;;9.51;78.71
66681;BME280;53575;51.366;12.350;2023-03-19T03:06:46;100024.63;;;9.53;79.80
66681;BME280;53575;51.366;12.350;2023-03-19T03:09:12;100026.38;;;9.52;79.33
66681;BME280;53575;51.366;12.350;2023-03-19T03:11:37;100029.00;;;9.54;79.86
66681;BME280;53575;51.366;12.350;2023-03-19T03:14:05;100025.50;;;9.55;79.27
66681;BME280;53575;51.366;12.350;2023-03-19T03:16:31;100032.44;;;9.56;78.88
66681;BME280;53575;51.366;12.350;2023-03-19T03:18:57;100029.72;;;9.71;77.14
66681;BME280;53575;51.366;12.350;2023-03-19T03:21:23;100034.00;;;9.82;76.50
66681;BME280;53575;51.366;12.350;2023-03-19T03:23:50;100036.47;;;9.98;75.20
66681;BME280;53575;51.366;12.350;2023-03-19T03:26:16;100039.16;;;9.92;75.92
66681;BME280;53575;51.366;12.350;2023-03-19T03:28:42;100033.03;;;9.95;74.93
66681;BME280;53575;51.366;12.350;2023-03-19T03:31:07;100039.19;;;9.86;75.46
66681;BME280;53575;51.366;12.350;2023-03-19T03:33:34;100038.31;;;9.87;75.65
66681;BME280;53575;51.366;12.350;2023-03-19T03:36:00;100038.31;;;9.87;75.51
66681;BME280;53575;51.366;12.350;2023-03-19T03:38:26;100037.47;;;9.82;75.40
66681;BME280;53575;51.366;12.350;2023-03-19T03:40:53;100041.81;;;9.83;75.07
66681;BME280;53575;51.366;12.350;2023-03-19T03:43:19;100040.06;;;9.85;75.07
66681;BME280;53575;51.366;12.350;2023-03-19T03:45:48;100042.63;;;9.90;74.95
66681;BME280;53575;51.366;12.350;2023-03-19T03:48:14;100043.47;;;9.95;74.51
66681;BME280;53575;51.366;12.350;2023-03-19T03:50:39;100046.97;;;9.94;74.07
66681;BME280;53575;51.366;12.350;2023-03-19T03:53:05;100048.69;;;9.95;73.77
66681;BME280;53575;51.366;12.350;2023-03-19T03:55:31;100055.59;;;10.04;74.16
66681;BME280;53575;51.366;12.350;2023-03-19T03:57:57;100057.31;;;10.03;73.62
66681;BME280;53575;51.366;12.350;2023-03-19T04:00:23;100053.78;;;10.10;73.28
66681;BME280;53575;51.366;12.350;2023-03-19T04:02:50;100047.69;;;10.10;74.10
66681;BME280;53575;51.366;12.350;2023-03-19T04:05:15;100052.16;;;9.97;74.48
66681;BME280;53575;51.366;12.350;2023-03-19T04:07:42;100051.31;;;9.96;74.58
66681;BME280;53575;51.366;12.350;2023-03-19T04:10:09;100051.16;;;10.10;73.60
66681;BME280;53575;51.366;12.350;2023-03-19T04:12:38;100044.31;;;9.95;74.96
66681;BME280;53575;51.366;12.350;2023-03-19T04:15:06;100049.56;;;9.94;75.03
66681;BME280;53575;51.366;12.350;2023-03-19T04:17:33;100044.25;;;10.06;74.07
66681;BME280;53575;51.366;12.350;2023-03-19T04:19:58;100049.50;;;10.05;73.80
66681;BME280;53575;51.366;12.350;2023-03-19T04:22:24;100041.69;;;10.01;73.28
66681;BME280;53575;51.366;12.350;2023-03-19T04:24:49;100037.31;;;10.04;73.34
66681;BME280;53575;51.366;12.350;2023-03-19T04:27:15;100037.44;;;9.87;74.29
66681;BME280;53575;51.366;12.350;2023-03-19T04:29:40;100043.63;;;9.73;75.28
66681;BME280;53575;51.366;12.350;2023-03-19T04:32:06;100054.13;;;9.61;76.19
66681;BME280;53575;51.366;12.350;2023-03-19T04:34:32;100051.50;;;9.67;76.23
66681;BME280;53575;51.366;12.350;2023-03-19T04:36:57;100052.41;;;9.63;76.19
66681;BME280;53575;51.366;12.350;2023-03-19T04:39:23;100047.94;;;9.76;76.62
66681;BME280;53575;51.366;12.350;2023-03-19T04:41:49;100047.94;;;9.76;76.77
66681;BME280;53575;51.366;12.350;2023-03-19T04:44:14;100052.44;;;9.59;77.25
66681;BME280;53575;51.366;12.350;2023-03-19T04:46:39;100041.28;;;9.35;78.82
66681;BME280;53575;51.366;12.350;2023-03-19T04:49:06;100045.72;;;9.16;79.56
66681;BME280;53575;51.366;12.350;2023-03-19T04:51:32;100044.03;;;9.03;80.10
66681;BME280;53575;51.366;12.350;2023-03-19T04:53:58;100044.97;;;8.87;80.89
66681;BME280;53575;51.366;12.350;2023-03-19T04:56:24;100049.28;;;8.92;79.94
66681;BME280;53575;51.366;12.350;2023-03-19T04:58:49;100054.53;;;8.83;80.15
66681;BME280;53575;51.366;12.350;2023-03-19T05:01:15;100059.78;;;8.74;80.70
66681;BME280;53575;51.366;12.350;2023-03-19T05:03:41;100056.28;;;8.69;80.77
66681;BME280;53575;51.366;12.350;2023-03-19T05:06:06;100052.88;;;8.59;81.37
66681;BME280;53575;51.366;12.350;2023-03-19T05:08:32;100054.59;;;8.52;81.86
66681;BME280;53575;51.366;12.350;2023-03-19T05:10:57;100050.25;;;8.47;81.89
66681;BME280;53575;51.366;12.350;2023-03-19T05:13:23;100051.13;;;8.43;82.42
66681;BME280;53575;51.366;12.350;2023-03-19T05:15:52;100054.63;;;8.37;83.24
66681;BME280;53575;51.366;12.350;2023-03-19T05:18:18;100036.38;;;8.36;83.63
66681;BME280;53575;51.366;12.350;2023-03-19T05:20:44;100053.75;;;8.21;84.50
66681;BME280;53575;51.366;12.350;2023-03-19T05:23:09;100052.03;;;8.14;84.10
66681;BME280;53575;51.366;12.350;2023-03-19T05:25:35;100053.75;;;8.12;84.60
66681;BME280;53575;51.366;12.350;2023-03-19T05:28:01;100052.88;;;8.10;84.78
66681;BME280;53575;51.366;12.350;2023-03-19T05:30:27;100055.50;;;7.99;85.32
66681;BME280;53575;51.366;12.350;2023-03-19T05:32:55;100055.50;;;7.99;85.81
66681;BME280;53575;51.366;12.350;2023-03-19T05:35:21;100071.09;;;8.01;85.61
66681;BME280;53575;51.366;12.350;2023-03-19T05:37:47;100071.97;;;8.24;83.99
66681;BME280;53575;51.366;12.350;2023-03-19T05:40:12;100071.09;;;8.30;84.21
66681;BME280;53575;51.366;12.350;2023-03-19T05:42:37;100079.78;;;8.32;83.50
66681;BME280;53575;51.366;12.350;2023-03-19T05:45:03;100072.84;;;8.28;83.57
66681;BME280;53575;51.366;12.350;2023-03-19T05:47:29;100081.50;;;8.36;83.24
66681;BME280;53575;51.366;12.350;2023-03-19T05:49:55;100084.13;;;8.41;82.80
66681;BME280;53575;51.366;12.350;2023-03-19T05:52:21;100089.31;;;8.47;82.77
66681;BME280;53575;51.366;12.350;2023-03-19T05:54:46;100092.78;;;8.58;82.15
66681;BME280;53575;51.366;12.350;2023-03-19T05:57:14;100091.06;;;8.54;82.62
66681;BME280;53575;51.366;12.350;2023-03-19T05:59:40;100088.47;;;8.56;81.84
66681;BME280;53575;51.366;12.350;2023-03-19T06:02:06;100086.69;;;8.62;81.45
66681;BME280;53575;51.366;12.350;2023-03-19T06:04:31;100086.72;;;8.67;81.28
66681;BME280;53575;51.366;12.350;2023-03-19T06:06:57;100089.28;;;8.74;80.83
66681;BME280;53575;51.366;12.350;2023-03-19T06:09:23;100097.13;;;8.74;80.69
66681;BME280;53575;51.366;12.350;2023-03-19T06:11:48;100102.31;;;8.82;80.71
66681;BME280;53575;51.366;12.350;2023-03-19T06:14:14;100107.47;;;8.94;79.41
66681;BME280;53575;51.366;12.350;2023-03-19T06:16:39;100109.16;;;9.08;78.71
66681;BME280;53575;51.366;12.350;2023-03-19T06:19:05;100111.72;;;9.18;78.20
66681;BME280;53575;51.366;12.350;2023-03-19T06:21:30;100109.16;;;9.17;78.18
66681;BME280;53575;51.366;12.350;2023-03-19T06:23:56;100106.53;;;9.18;79.13
66681;BME280;53575;51.366;12.350;2023-03-19T06:26:23;100109.13;;;9.21;78.68
66681;BME280;53575;51.366;12.350;2023-03-19T06:28:49;100102.19;;;9.23;78.13
66681;BME280;53575;51.366;12.350;2023-03-19T06:31:14;100107.38;;;9.28;77.95
66681;BME280;53575;51.366;12.350;2023-03-19T06:33:40;100106.44;;;9.37;77.49
66681;BME280;53575;51.366;12.350;2023-03-19T06:36:06;100105.56;;;9.41;77.74
66681;BME280;53575;51.366;12.350;2023-03-19T06:38:33;100113.34;;;9.45;76.84
66681;BME280;53575;51.366;12.350;2023-03-19T06:41:00;100112.41;;;9.63;76.52
66681;BME280;53575;51.366;12.350;2023-03-19T06:43:26;100110.63;;;9.71;76.22
66681;BME280;53575;51.366;12.350;2023-03-19T06:45:51;100108.78;;;9.86;75.56
66681;BME280;53575;51.366;12.350;2023-03-19T06:48:17;100108.78;;;9.89;75.34
66681;BME280;53575;51.366;12.350;2023-03-19T06:50:44;100121.81;;;9.89;74.82
66681;BME280;53575;51.366;12.350;2023-03-19T06:53:10;100122.69;;;9.92;74.70
66681;BME280;53575;51.366;12.350;2023-03-19T06:55:36;100123.50;;;10.00;74.75
66681;BME280;53575;51.366;12.350;2023-03-19T06:58:02;100115.56;;;10.10;73.86
66681;BME280;53575;51.366;12.350;2023-03-19T07:00:27;100115.59;;;10.08;73.64
66681;BME280;53575;51.366;12.350;2023-03-19T07:02:53;100115.56;;;10.13;73.44
66681;BME280;53575;51.366;12.350;2023-03-19T07:05:18;100118.94;;;10.29;73.54
66681;BME280;53575;51.366;12.350;2023-03-19T07:07:44;100123.13;;;10.48;73.36
66681;BME280;53575;51.366;12.350;2023-03-19T07:10:10;100123.16;;;10.46;72.57
66681;BME280;53575;51.366;12.350;2023-03-19T07:12:35;100133.50;;;10.59;72.48
66681;BME280;53575;51.366;12.350;2023-03-19T07:15:01;100131.75;;;10.56;71.77
66681;BME280;53575;51.366;12.350;2023-03-19T07:17:28;100132.66;;;10.55;71.71
66681;BME280;53575;51.366;12.350;2023-03-19T07:19:54;100135.31;;;10.49;71.79
66681;BME280;53575;51.366;12.350;2023-03-19T07:22:19;100129.16;;;10.56;71.71
66681;BME280;53575;51.366;12.350;2023-03-19T07:24:45;100130.84;;;10.65;71.80
66681;BME280;53575;51.366;12.350;2023-03-19T07:27:11;100123.72;;;10.78;71.76
66681;BME280;53575;51.366;12.350;2023-03-19T07:29:36;100130.59;;;10.89;71.14
66681;BME280;53575;51.366;12.350;2023-03-19T07:32:02;100133.09;;;11.00;71.70
66681;BME280;53575;51.366;12.350;2023-03-19T07:34:28;100135.50;;;11.18;70.08
66681;BME280;53575;51.366;12.350;2023-03-19T07:36:53;100146.66;;;11.34;69.06
66681;BME280;53575;51.366;12.350;2023-03-19T07:39:19;100142.16;;;11.44;69.29
66681;BME280;53575;51.366;12.350;2023-03-19T07:41:45;100141.38;;;11.37;69.32
66681;BME280;53575;51.366;12.350;2023-03-19T07:44:14;100137.09;;;11.33;69.34
66681;BME280;53575;51.366;12.350;2023-03-19T07:46:41;100141.47;;;11.30;70.02
66681;BME280;53575;51.366;12.350;2023-03-19T07:49:06;100142.22;;;11.39;69.89
66681;BME280;53575;51.366;12.350;2023-03-19T07:51:32;100136.91;;;11.45;69.65
66681;BME280;53575;51.366;12.350;2023-03-19T07:53:58;100132.44;;;11.54;70.12
66681;BME280;53575;51.366;12.350;2023-03-19T07:56:24;100134.06;;;11.62;69.71
66681;BME280;53575;51.366;12.350;2023-03-19T07:58:50;100130.59;;;11.62;69.27
66681;BME280;53575;51.366;12.350;2023-03-19T08:01:16;100129.56;;;11.74;69.05
66681;BME280;53575;51.366;12.350;2023-03-19T08:03:41;100126.88;;;11.78;69.18
66681;BME280;53575;51.366;12.350;2023-03-19T08:06:07;100124.22;;;11.84;68.99
66681;BME280;53575;51.366;12.350;2023-03-19T08:08:32;100124.19;;;11.83;69.28
66681;BME280;53575;51.366;12.350;2023-03-19T08:10:59;100127.53;;;11.95;69.19
66681;BME280;53575;51.366;12.350;2023-03-19T08:13:25;100123.84;;;12.09;68.41
66681;BME280;53575;51.366;12.350;2023-03-19T08:15:50;100123.56;;;12.27;67.56
66681;BME280;53575;51.366;12.350;2023-03-19T08:18:17;100124.38;;;12.31;67.75
66681;BME280;53575;51.366;12.350;2023-03-19T08:20:46;100126.88;;;12.38;67.34
66681;BME280;53575;51.366;12.350;2023-03-19T08:23:12;100126.69;;;12.48;67.11
66681;BME280;53575;51.366;12.350;2023-03-19T08:25:38;100127.31;;;12.63;66.74
66681;BME280;53575;51.366;12.350;2023-03-19T08:28:03;100116.56;;;12.77;66.48
66681;BME280;53575;51.366;12.350;2023-03-19T08:30:29;100126.69;;;12.97;65.80
66681;BME280;53575;51.366;12.350;2023-03-19T08:32:56;100128.84;;;13.23;64.92
66681;BME280;53575;51.366;12.350;2023-03-19T08:35:22;100131.06;;;13.43;64.56
66681;BME280;53575;51.366;12.350;2023-03-19T08:37:48;100136.19;;;13.49;64.35
66681;BME280;53575;51.366;12.350;2023-03-19T08:40:14;100140.31;;;13.62;63.63
66681;BME280;53575;51.366;12.350;2023-03-19T08:42:40;100133.38;;;13.58;63.76
66681;BME280;53575;51.366;12.350;2023-03-19T08:45:10;100135.81;;;13.68;63.75
66681;BME280;53575;51.366;12.350;2023-03-19T08:47:37;100147.91;;;13.75;63.74
66681;BME280;53575;51.366;12.350;2023-03-19T08:50:03;100146.84;;;13.83;63.77
66681;BME280;53575;51.366;12.350;2023-03-19T08:52:29;100147.75;;;13.81;64.38
66681;BME280;53575;51.366;12.350;2023-03-19T08:54:55;100151.81;;;13.96;64.18
66681;BME280;53575;51.366;12.350;2023-03-19T08:57:20;100155.91;;;14.09;63.67
66681;BME280;53575;51.366;12.350;2023-03-19T08:59:46;100161.16;;;14.07;63.30
66681;BME280;53575;51.366;12.350;2023-03-19T09:02:11;100152.31;;;14.11;63.60
66681;BME280;53575;51.366;12.350;2023-03-19T09:04:41;100157.72;;;14.05;63.76
66681;BME280;53575;51.366;12.350;2023-03-19T09:07:07;100155.72;;;14.15;63.91
66681;BME280;53575;51.366;12.350;2023-03-19T09:09:32;100154.44;;;14.33;63.41
66681;BME280;53575;51.366;12.350;2023-03-19T09:11:58;100155.53;;;14.24;63.12
66681;BME280;53575;51.366;12.350;2023-03-19T09:14:24;100162.31;;;14.33;62.47
66681;BME280;53575;51.366;12.350;2023-03-19T09:16:49;100159.63;;;14.36;62.81
66681;BME280;53575;51.366;12.350;2023-03-19T09:19:15;100167.44;;;14.39;62.94
66681;BME280;53575;51.366;12.350;2023-03-19T09:21:41;100162.88;;;14.47;62.54
66681;BME280;53575;51.366;12.350;2023-03-19T09:24:07;100166.16;;;14.57;62.62
66681;BME280;53575;51.366;12.350;2023-03-19T09:26:32;100165.16;;;14.62;62.66
66681;BME280;53575;51.366;12.350;2023-03-19T09:28:58;100171.69;;;14.80;60.98
66681;BME280;53575;51.366;12.350;2023-03-19T09:31:23;100176.59;;;14.96;61.44
66681;BME280;53575;51.366;12.350;2023-03-19T09:33:49;100165.81;;;15.05;60.89
66681;BME280;53575;51.366;12.350;2023-03-19T09:36:14;100167.72;;;14.98;60.61
66681;BME280;53575;51.366;12.350;2023-03-19T09:38:40;100178.56;;;14.86;59.80
66681;BME280;53575;51.366;12.350;2023-03-19T09:41:09;100174.03;;;14.93;59.38
66681;BME280;53575;51.366;12.350;2023-03-19T09:49:43;100164.91;;;15.37;60.25
66681;BME280;53575;51.366;12.350;2023-03-19T09:57:42;100165.56;;;15.76;58.46
66681;BME280;53575;51.366;12.350;2023-03-19T10:00:28;100164.50;;;15.82;57.97
66681;BME280;53575;51.366;12.350;2023-03-19T10:16:58;100162.47;;;16.20;56.29
66681;BME280;53575;51.366;12.350;2023-03-19T10:19:36;100164.94;;;16.26;56.07
66681;BME280;53575;51.366;12.350;2023-03-19T10:22:04;100155.28;;;16.51;55.37
66681;BME280;53575;51.366;12.350;2023-03-19T10:24:38;100165.06;;;16.48;54.96
66681;BME280;53575;51.366;12.350;2023-03-19T10:27:10;100165.75;;;16.54;54.46
66681;BME280;53575;51.366;12.350;2023-03-19T10:29:37;100161.25;;;16.85;53.99
66681;BME280;53575;51.366;12.350;2023-03-19T10:34:40;100173.84;;;16.76;53.85
66681;BME280;53575;51.366;12.350;2023-03-19T10:37:18;100183.13;;;16.88;53.53
66681;BME280;53575;51.366;12.350;2023-03-19T10:39:48;100183.63;;;16.99;53.15
66681;BME280;53575;51.366;12.350;2023-03-19T10:42:39;100181.22;;;16.65;53.91
66681;BME280;53575;51.366;12.350;2023-03-19T10:47:42;100176.56;;;16.73;54.17
66681;BME280;53575;51.366;12.350;2023-03-19T10:50:15;100186.25;;;16.73;54.50
66681;BME280;53575;51.366;12.350;2023-03-19T10:52:41;100179.44;;;16.66;53.97
66681;BME280;53575;51.366;12.350;2023-03-19T10:55:22;100186.69;;;16.59;53.79
66681;BME280;53575;51.366;12.350;2023-03-19T10:57:49;100181.03;;;16.71;53.35
66681;BME280;53575;51.366;12.350;2023-03-19T11:00:22;100175.56;;;16.77;53.13
66681;BME280;53575;51.366;12.350;2023-03-19T11:02:51;100181.69;;;16.78;53.62
66681;BME280;53575;51.366;12.350;2023-03-19T11:08:12;100177.28;;;16.78;53.61
66681;BME280;53575;51.366;12.350;2023-03-19T11:10:46;100177.25;;;16.80;53.82
66681;BME280;53575;51.366;12.350;2023-03-19T11:13:21;100178.88;;;16.83;54.31
66681;BME280;53575;51.366;12.350;2023-03-19T11:15:48;100178.03;;;16.82;55.03
66681;BME280;53575;51.366;12.350;2023-03-19T11:18:27;100172.50;;;16.90;55.70
66681;BME280;53575;51.366;12.350;2023-03-19T11:20:56;100173.84;;;17.01;55.67
66681;BME280;53575;51.366;12.350;2023-03-19T11:23:28;100179.53;;;16.91;55.53
66681;BME280;53575;51.366;12.350;2023-03-19T11:25:58;100178.88;;;16.83;54.94
66681;BME280;53575;51.366;12.350;2023-03-19T11:28:26;100165.84;;;16.78;55.08
66681;BME280;53575;51.366;12.350;2023-03-19T11:36:42;100162.31;;;16.79;56.24
66681;BME280;53575;51.366;12.350;2023-03-19T11:44:43;100153.97;;;17.16;56.83
66681;BME280;53575;51.366;12.350;2023-03-19T11:49:50;100149.50;;;16.93;57.38
66681;BME280;53575;51.366;12.350;2023-03-19T11:52:21;100155.97;;;17.10;57.24
66681;BME280;53575;51.366;12.350;2023-03-19T11:55:03;100152.53;;;17.08;57.12
66681;BME280;53575;51.366;12.350;2023-03-19T12:03:09;100165.28;;;17.20;56.52
66681;BME280;53575;51.366;12.350;2023-03-19T12:11:23;100163.28;;;17.75;55.63
66681;BME280;53575;51.366;12.350;2023-03-19T12:22:39;100160.50;;;17.54;57.04
66681;BME280;53575;51.366;12.350;2023-03-19T12:26:10;100164.16;;;17.27;57.88
66681;BME280;53575;51.366;12.350;2023-03-19T12:28:33;100182.56;;;16.78;58.59
66681;BME280;53575;51.366;12.350;2023-03-19T12:33:51;100183.47;;;16.23;61.85
66681;BME280;53575;51.366;12.350;2023-03-19T12:36:23;100179.06;;;15.95;62.53
66681;BME280;53575;51.366;12.350;2023-03-19T12:38:53;100174.78;;;15.91;62.76
66681;BME280;53575;51.366;12.350;2023-03-19T12:41:23;100191.72;;;16.12;62.97
66681;BME280;53575;51.366;12.350;2023-03-19T12:43:57;100192.00;;;16.03;64.20
66681;BME280;53575;51.366;12.350;2023-03-19T12:46:31;100190.09;;;15.78;66.65
66681;BME280;53575;51.366;12.350;2023-03-19T12:49:48;100196.41;;;15.40;69.63
66681;BME280;53575;51.366;12.350;2023-03-19T12:51:52;100197.25;;;15.09;72.85
66681;BME280;53575;51.366;12.350;2023-03-19T12:54:27;100195.88;;;14.96;74.79
66681;BME280;53575;51.366;12.350;2023-03-19T13:10:38;100205.78;;;14.85;77.83
66681;BME280;53575;51.366;12.350;2023-03-19T13:13:31;100207.19;;;14.98;77.20
66681;BME280;53575;51.366;12.350;2023-03-19T13:16:09;100226.84;;;14.85;74.02
66681;BME280;53575;51.366;12.350;2023-03-19T13:18:52;100219.53;;;14.60;73.30
66681;BME280;53575;51.366;12.350;2023-03-19T13:24:05;100233.59;;;14.21;74.81
66681;BME280;53575;51.366;12.350;2023-03-19T13:26:34;100226.03;;;14.05;76.08
66681;BME280;53575;51.366;12.350;2023-03-19T13:29:19;100224.28;;;14.06;76.64
66681;BME280;53575;51.366;12.350;2023-03-19T13:31:47;100227.06;;;13.98;77.44
66681;BME280;53575;51.366;12.350;2023-03-19T13:36:42;100231.34;;;13.60;79.07
66681;BME280;53575;51.366;12.350;2023-03-19T13:39:14;100224.78;;;13.39;80.35
66681;BME280;53575;51.366;12.350;2023-03-19T13:44:27;100227.59;;;13.29;81.40
66681;BME280;53575;51.366;12.350;2023-03-19T13:47:01;100225.06;;;13.21;82.59
66681;BME280;53575;51.366;12.350;2023-03-19T13:49:30;100217.06;;;13.30;83.06
66681;BME280;53575;51.366;12.350;2023-03-19T13:54:43;100222.59;;;13.13;86.78
66681;BME280;53575;51.366;12.350;2023-03-19T13:59:41;100219.97;;;13.12;89.70
66681;BME280;53575;51.366;12.350;2023-03-19T14:05:03;100217.91;;;13.31;91.40
66681;BME280;53575;51.366;12.350;2023-03-19T14:07:35;100201.41;;;13.23;92.10
66681;BME280;53575;51.366;12.350;2023-03-19T14:10:11;100212.81;;;13.25;93.48
66681;BME280;53575;51.366;12.350;2023-03-19T14:12:40;100208.47;;;13.19;93.47
66681;BME280;53575;51.366;12.350;2023-03-19T14:17:36;100218.16;;;13.17;92.83
66681;BME280;53575;51.366;12.350;2023-03-19T14:22:38;100213.09;;;13.06;94.22
66681;BME280;53575;51.366;12.350;2023-03-19T14:25:15;100205.19;;;13.08;93.68
66681;BME280;53575;51.366;12.350;2023-03-19T14:27:49;100207.06;;;13.01;93.73
66681;BME280;53575;51.366;12.350;2023-03-19T14:30:30;100211.28;;;13.10;94.23
66681;BME280;53575;51.366;12.350;2023-03-19T14:32:59;100208.66;;;13.08;94.59